sensor_id;sensor_type;location;lat;lon;timestamp;temperature;humidity
15241;DHT22;7723;52.170;9.978;2022-08-03T00:01:05;18.90;66.30
15241;DHT22;7723;52.170;9.978;2022-08-03T00:03:32;19.00;63.10
15241;DHT22;7723;52.170;9.978;2022-08-03T00:05:59;19.00;61.70
15241;DHT22;7723;52.170;9.978;2022-08-03T00:08:28;18.90;60.10
15241;DHT22;7723;52.170;9.978;2022-08-03T00:10:55;19.10;56.60
15241;DHT22;7723;52.170;9.978;2022-08-03T00:13:22;19.10;55.40
15241;DHT22;7723;52.170;9.978;2022-08-03T00:15:49;19.10;56.10
15241;DHT22;7723;52.170;9.978;2022-08-03T00:18:17;19.00;56.50
15241;DHT22;7723;52.170;9.978;2022-08-03T00:20:44;18.90;58.30
15241;DHT22;7723;52.170;9.978;2022-08-03T00:23:11;19.00;54.60
15241;DHT22;7723;52.170;9.978;2022-08-03T00:25:40;19.00;53.00
15241;DHT22;7723;52.170;9.978;2022-08-03T00:28:07;19.00;53.40
15241;DHT22;7723;52.170;9.978;2022-08-03T00:30:35;18.90;52.40
15241;DHT22;7723;52.170;9.978;2022-08-03T00:33:03;18.80;52.40
15241;DHT22;7723;52.170;9.978;2022-08-03T00:35:30;18.80;53.90
15241;DHT22;7723;52.170;9.978;2022-08-03T00:37:57;18.70;55.60
15241;DHT22;7723;52.170;9.978;2022-08-03T00:40:25;18.70;57.30
15241;DHT22;7723;52.170;9.978;2022-08-03T00:42:55;18.60;58.80
15241;DHT22;7723;52.170;9.978;2022-08-03T00:45:23;18.60;62.10
15241;DHT22;7723;52.170;9.978;2022-08-03T00:47:51;18.60;66.60
15241;DHT22;7723;52.170;9.978;2022-08-03T00:50:19;18.50;68.80
15241;DHT22;7723;52.170;9.978;2022-08-03T00:52:48;18.40;67.20
15241;DHT22;7723;52.170;9.978;2022-08-03T00:55:15;18.40;69.30
15241;DHT22;7723;52.170;9.978;2022-08-03T00:57:43;18.40;69.80
15241;DHT22;7723;52.170;9.978;2022-08-03T01:00:13;18.30;71.00
15241;DHT22;7723;52.170;9.978;2022-08-03T01:02:41;18.30;72.10
15241;DHT22;7723;52.170;9.978;2022-08-03T01:05:09;18.30;70.20
15241;DHT22;7723;52.170;9.978;2022-08-03T01:07:42;18.30;69.50
15241;DHT22;7723;52.170;9.978;2022-08-03T01:10:16;18.40;66.10
15241;DHT22;7723;52.170;9.978;2022-08-03T01:12:51;18.40;63.40
15241;DHT22;7723;52.170;9.978;2022-08-03T01:15:27;18.30;64.50
15241;DHT22;7723;52.170;9.978;2022-08-03T01:17:58;18.30;65.60
15241;DHT22;7723;52.170;9.978;2022-08-03T01:20:31;18.30;66.40
15241;DHT22;7723;52.170;9.978;2022-08-03T01:23:09;18.30;71.50
15241;DHT22;7723;52.170;9.978;2022-08-03T01:25:53;18.30;69.50
15241;DHT22;7723;52.170;9.978;2022-08-03T01:28:55;18.30;67.10
15241;DHT22;7723;52.170;9.978;2022-08-03T01:31:30;18.20;64.20
15241;DHT22;7723;52.170;9.978;2022-08-03T01:34:00;18.20;65.80
15241;DHT22;7723;52.170;9.978;2022-08-03T01:36:32;18.20;71.10
15241;DHT22;7723;52.170;9.978;2022-08-03T01:39:03;18.10;71.30
15241;DHT22;7723;52.170;9.978;2022-08-03T01:41:38;18.10;75.10
15241;DHT22;7723;52.170;9.978;2022-08-03T01:44:08;18.00;74.70
15241;DHT22;7723;52.170;9.978;2022-08-03T01:46:39;18.00;78.90
15241;DHT22;7723;52.170;9.978;2022-08-03T01:49:09;17.90;81.30
15241;DHT22;7723;52.170;9.978;2022-08-03T01:51:38;17.90;84.20
15241;DHT22;7723;52.170;9.978;2022-08-03T01:54:09;17.80;88.50
15241;DHT22;7723;52.170;9.978;2022-08-03T01:56:37;17.80;91.20
15241;DHT22;7723;52.170;9.978;2022-08-03T01:59:06;17.80;93.30
15241;DHT22;7723;52.170;9.978;2022-08-03T02:01:35;17.70;94.30
15241;DHT22;7723;52.170;9.978;2022-08-03T02:04:05;17.70;96.80
15241;DHT22;7723;52.170;9.978;2022-08-03T02:06:34;17.70;99.90
15241;DHT22;7723;52.170;9.978;2022-08-03T02:09:03;17.70;99.90
15241;DHT22;7723;52.170;9.978;2022-08-03T02:11:33;17.60;99.90
15241;DHT22;7723;52.170;9.978;2022-08-03T02:14:04;17.60;99.90
15241;DHT22;7723;52.170;9.978;2022-08-03T02:16:32;17.60;99.90
15241;DHT22;7723;52.170;9.978;2022-08-03T02:19:05;17.50;99.90
15241;DHT22;7723;52.170;9.978;2022-08-03T02:21:36;17.50;99.90
15241;DHT22;7723;52.170;9.978;2022-08-03T02:24:04;17.50;99.90
15241;DHT22;7723;52.170;9.978;2022-08-03T02:26:32;17.50;99.90
15241;DHT22;7723;52.170;9.978;2022-08-03T02:29:04;17.50;99.90
15241;DHT22;7723;52.170;9.978;2022-08-03T02:31:33;17.50;99.90
15241;DHT22;7723;52.170;9.978;2022-08-03T02:34:05;17.40;99.90
15241;DHT22;7723;52.170;9.978;2022-08-03T02:36:37;17.40;99.90
15241;DHT22;7723;52.170;9.978;2022-08-03T02:39:08;17.40;99.90
15241;DHT22;7723;52.170;9.978;2022-08-03T02:41:41;17.40;99.90
15241;DHT22;7723;52.170;9.978;2022-08-03T02:44:10;17.50;99.90
15241;DHT22;7723;52.170;9.978;2022-08-03T02:46:41;17.50;99.90
15241;DHT22;7723;52.170;9.978;2022-08-03T02:49:12;17.40;99.90
15241;DHT22;7723;52.170;9.978;2022-08-03T02:51:40;17.40;99.90
15241;DHT22;7723;52.170;9.978;2022-08-03T02:54:08;17.40;99.90
15241;DHT22;7723;52.170;9.978;2022-08-03T02:56:37;17.40;99.90
15241;DHT22;7723;52.170;9.978;2022-08-03T02:59:06;17.40;99.90
15241;DHT22;7723;52.170;9.978;2022-08-03T03:01:35;17.30;99.90
15241;DHT22;7723;52.170;9.978;2022-08-03T03:04:02;17.30;99.90
15241;DHT22;7723;52.170;9.978;2022-08-03T03:06:31;17.20;99.90
15241;DHT22;7723;52.170;9.978;2022-08-03T03:08:59;17.30;99.90
15241;DHT22;7723;52.170;9.978;2022-08-03T03:11:27;17.20;99.90
15241;DHT22;7723;52.170;9.978;2022-08-03T03:13:56;17.10;99.90
15241;DHT22;7723;52.170;9.978;2022-08-03T03:16:25;17.10;99.90
15241;DHT22;7723;52.170;9.978;2022-08-03T03:18:53;17.00;99.90
15241;DHT22;7723;52.170;9.978;2022-08-03T03:21:21;17.00;99.90
15241;DHT22;7723;52.170;9.978;2022-08-03T03:23:51;17.00;99.90
15241;DHT22;7723;52.170;9.978;2022-08-03T03:26:19;17.00;99.90
15241;DHT22;7723;52.170;9.978;2022-08-03T03:28:47;17.00;99.90
15241;DHT22;7723;52.170;9.978;2022-08-03T03:31:14;17.00;99.90
15241;DHT22;7723;52.170;9.978;2022-08-03T03:33:41;17.00;99.90
15241;DHT22;7723;52.170;9.978;2022-08-03T03:36:09;16.90;99.90
15241;DHT22;7723;52.170;9.978;2022-08-03T03:38:36;17.00;99.90
15241;DHT22;7723;52.170;9.978;2022-08-03T03:41:05;17.10;99.90
15241;DHT22;7723;52.170;9.978;2022-08-03T03:43:32;17.00;99.90
15241;DHT22;7723;52.170;9.978;2022-08-03T03:45:59;17.00;99.90
15241;DHT22;7723;52.170;9.978;2022-08-03T03:48:27;17.00;99.90
15241;DHT22;7723;52.170;9.978;2022-08-03T03:50:54;17.00;99.90
15241;DHT22;7723;52.170;9.978;2022-08-03T03:53:22;17.10;99.90
15241;DHT22;7723;52.170;9.978;2022-08-03T03:55:51;17.10;99.90
15241;DHT22;7723;52.170;9.978;2022-08-03T03:58:20;17.20;99.90
15241;DHT22;7723;52.170;9.978;2022-08-03T04:00:47;17.20;99.90
15241;DHT22;7723;52.170;9.978;2022-08-03T04:03:15;17.30;99.90
15241;DHT22;7723;52.170;9.978;2022-08-03T04:05:42;17.30;99.90
15241;DHT22;7723;52.170;9.978;2022-08-03T04:08:27;17.30;99.90
15241;DHT22;7723;52.170;9.978;2022-08-03T04:11:15;17.40;99.90
15241;DHT22;7723;52.170;9.978;2022-08-03T04:13:49;17.50;99.90
15241;DHT22;7723;52.170;9.978;2022-08-03T04:16:19;17.50;99.90
15241;DHT22;7723;52.170;9.978;2022-08-03T04:18:50;17.60;98.30
15241;DHT22;7723;52.170;9.978;2022-08-03T04:21:20;17.70;99.70
15241;DHT22;7723;52.170;9.978;2022-08-03T04:23:52;17.80;99.20
15241;DHT22;7723;52.170;9.978;2022-08-03T04:26:21;17.80;97.20
15241;DHT22;7723;52.170;9.978;2022-08-03T04:28:53;17.90;96.60
15241;DHT22;7723;52.170;9.978;2022-08-03T04:31:22;17.90;97.50
15241;DHT22;7723;52.170;9.978;2022-08-03T04:33:51;18.10;95.30
15241;DHT22;7723;52.170;9.978;2022-08-03T04:36:22;18.60;95.30
15241;DHT22;7723;52.170;9.978;2022-08-03T04:38:56;19.40;86.50
15241;DHT22;7723;52.170;9.978;2022-08-03T04:41:25;20.40;57.80
15241;DHT22;7723;52.170;9.978;2022-08-03T04:43:56;21.40;31.30
15241;DHT22;7723;52.170;9.978;2022-08-03T04:46:27;22.40;11.80
15241;DHT22;7723;52.170;9.978;2022-08-03T04:48:55;23.10;1.00
15241;DHT22;7723;52.170;9.978;2022-08-03T04:51:23;23.90;1.00
15241;DHT22;7723;52.170;9.978;2022-08-03T04:53:51;24.40;1.00
15241;DHT22;7723;52.170;9.978;2022-08-03T04:56:18;25.10;1.00
15241;DHT22;7723;52.170;9.978;2022-08-03T04:58:45;25.50;1.00
15241;DHT22;7723;52.170;9.978;2022-08-03T05:01:15;26.00;1.00
15241;DHT22;7723;52.170;9.978;2022-08-03T05:03:42;26.60;1.00
15241;DHT22;7723;52.170;9.978;2022-08-03T05:06:09;27.00;1.00
15241;DHT22;7723;52.170;9.978;2022-08-03T05:08:36;27.30;1.00
15241;DHT22;7723;52.170;9.978;2022-08-03T05:11:03;27.70;1.00
15241;DHT22;7723;52.170;9.978;2022-08-03T05:13:30;27.50;1.00
15241;DHT22;7723;52.170;9.978;2022-08-03T05:15:57;27.20;1.00
15241;DHT22;7723;52.170;9.978;2022-08-03T05:18:26;27.10;1.00
15241;DHT22;7723;52.170;9.978;2022-08-03T05:20:54;26.80;1.00
15241;DHT22;7723;52.170;9.978;2022-08-03T05:23:21;26.60;1.00
15241;DHT22;7723;52.170;9.978;2022-08-03T05:25:48;26.70;1.00
15241;DHT22;7723;52.170;9.978;2022-08-03T05:28:15;27.10;1.00
15241;DHT22;7723;52.170;9.978;2022-08-03T05:30:42;27.50;1.00
15241;DHT22;7723;52.170;9.978;2022-08-03T05:33:10;27.80;1.00
15241;DHT22;7723;52.170;9.978;2022-08-03T05:35:39;28.00;1.00
15241;DHT22;7723;52.170;9.978;2022-08-03T05:38:06;28.50;1.00
15241;DHT22;7723;52.170;9.978;2022-08-03T05:40:33;28.80;1.00
15241;DHT22;7723;52.170;9.978;2022-08-03T05:43:01;29.00;1.00
15241;DHT22;7723;52.170;9.978;2022-08-03T05:45:28;29.20;1.00
15241;DHT22;7723;52.170;9.978;2022-08-03T05:47:55;29.10;1.00
15241;DHT22;7723;52.170;9.978;2022-08-03T05:50:22;29.70;1.00
15241;DHT22;7723;52.170;9.978;2022-08-03T05:52:54;30.00;1.00
15241;DHT22;7723;52.170;9.978;2022-08-03T05:55:22;30.20;1.00
15241;DHT22;7723;52.170;9.978;2022-08-03T05:57:49;30.00;1.00
15241;DHT22;7723;52.170;9.978;2022-08-03T06:00:17;29.90;1.00
15241;DHT22;7723;52.170;9.978;2022-08-03T06:02:44;30.20;1.00
15241;DHT22;7723;52.170;9.978;2022-08-03T06:05:11;30.70;1.00
15241;DHT22;7723;52.170;9.978;2022-08-03T06:07:38;30.40;1.00
15241;DHT22;7723;52.170;9.978;2022-08-03T06:10:07;30.50;1.00
15241;DHT22;7723;52.170;9.978;2022-08-03T06:12:35;31.10;1.00
15241;DHT22;7723;52.170;9.978;2022-08-03T06:15:02;31.10;1.00
15241;DHT22;7723;52.170;9.978;2022-08-03T06:17:29;31.40;1.00
15241;DHT22;7723;52.170;9.978;2022-08-03T06:19:56;31.50;1.00
15241;DHT22;7723;52.170;9.978;2022-08-03T06:22:23;31.90;1.00
15241;DHT22;7723;52.170;9.978;2022-08-03T06:24:51;31.80;1.00
15241;DHT22;7723;52.170;9.978;2022-08-03T06:27:19;31.40;1.00
15241;DHT22;7723;52.170;9.978;2022-08-03T06:29:46;31.70;1.00
15241;DHT22;7723;52.170;9.978;2022-08-03T06:32:13;31.90;1.00
15241;DHT22;7723;52.170;9.978;2022-08-03T06:34:41;31.50;1.00
15241;DHT22;7723;52.170;9.978;2022-08-03T06:37:08;31.70;1.00
15241;DHT22;7723;52.170;9.978;2022-08-03T06:39:36;31.90;1.00
15241;DHT22;7723;52.170;9.978;2022-08-03T06:42:04;32.00;1.00
15241;DHT22;7723;52.170;9.978;2022-08-03T06:44:32;32.40;1.00
15241;DHT22;7723;52.170;9.978;2022-08-03T06:46:59;32.80;1.00
15241;DHT22;7723;52.170;9.978;2022-08-03T06:49:27;32.70;1.00
15241;DHT22;7723;52.170;9.978;2022-08-03T06:51:54;32.90;1.00
15241;DHT22;7723;52.170;9.978;2022-08-03T06:54:21;33.00;1.00
15241;DHT22;7723;52.170;9.978;2022-08-03T06:56:50;33.00;1.00
15241;DHT22;7723;52.170;9.978;2022-08-03T06:59:17;32.20;1.00
15241;DHT22;7723;52.170;9.978;2022-08-03T07:01:45;32.80;1.00
15241;DHT22;7723;52.170;9.978;2022-08-03T07:04:12;33.00;1.00
15241;DHT22;7723;52.170;9.978;2022-08-03T07:06:39;32.80;1.00
15241;DHT22;7723;52.170;9.978;2022-08-03T07:09:06;32.80;1.00
15241;DHT22;7723;52.170;9.978;2022-08-03T07:11:34;32.90;1.00
15241;DHT22;7723;52.170;9.978;2022-08-03T07:14:04;32.60;1.00
15241;DHT22;7723;52.170;9.978;2022-08-03T07:16:32;32.80;1.00
15241;DHT22;7723;52.170;9.978;2022-08-03T07:19:00;32.50;1.00
15241;DHT22;7723;52.170;9.978;2022-08-03T07:21:27;31.90;1.00
15241;DHT22;7723;52.170;9.978;2022-08-03T07:23:54;31.50;1.00
15241;DHT22;7723;52.170;9.978;2022-08-03T07:26:21;32.10;1.00
15241;DHT22;7723;52.170;9.978;2022-08-03T07:28:49;32.70;1.00
15241;DHT22;7723;52.170;9.978;2022-08-03T07:31:16;32.50;1.00
15241;DHT22;7723;52.170;9.978;2022-08-03T07:33:43;33.20;1.00
15241;DHT22;7723;52.170;9.978;2022-08-03T07:36:12;33.60;1.00
15241;DHT22;7723;52.170;9.978;2022-08-03T07:38:39;34.10;1.00
15241;DHT22;7723;52.170;9.978;2022-08-03T07:41:06;34.30;1.00
15241;DHT22;7723;52.170;9.978;2022-08-03T07:43:33;33.80;1.00
15241;DHT22;7723;52.170;9.978;2022-08-03T07:46:00;33.80;1.00
15241;DHT22;7723;52.170;9.978;2022-08-03T07:48:27;33.00;1.00
15241;DHT22;7723;52.170;9.978;2022-08-03T07:50:54;33.60;1.00
15241;DHT22;7723;52.170;9.978;2022-08-03T07:53:23;34.50;1.00
15241;DHT22;7723;52.170;9.978;2022-08-03T07:55:50;34.90;1.00
15241;DHT22;7723;52.170;9.978;2022-08-03T07:58:17;34.40;1.00
15241;DHT22;7723;52.170;9.978;2022-08-03T08:00:44;33.60;1.00
15241;DHT22;7723;52.170;9.978;2022-08-03T08:03:11;33.10;1.00
15241;DHT22;7723;52.170;9.978;2022-08-03T08:05:39;33.30;1.00
15241;DHT22;7723;52.170;9.978;2022-08-03T08:08:06;33.80;1.00
15241;DHT22;7723;52.170;9.978;2022-08-03T08:10:35;33.60;1.00
15241;DHT22;7723;52.170;9.978;2022-08-03T08:13:03;33.60;1.00
15241;DHT22;7723;52.170;9.978;2022-08-03T08:15:30;34.30;1.00
15241;DHT22;7723;52.170;9.978;2022-08-03T08:17:58;34.80;1.00
15241;DHT22;7723;52.170;9.978;2022-08-03T08:20:29;34.90;1.00
15241;DHT22;7723;52.170;9.978;2022-08-03T08:22:56;34.60;1.00
15241;DHT22;7723;52.170;9.978;2022-08-03T08:25:24;35.10;1.00
15241;DHT22;7723;52.170;9.978;2022-08-03T08:27:53;35.70;1.00
15241;DHT22;7723;52.170;9.978;2022-08-03T08:30:22;34.80;1.00
15241;DHT22;7723;52.170;9.978;2022-08-03T08:32:49;35.40;1.00
15241;DHT22;7723;52.170;9.978;2022-08-03T08:35:17;34.70;1.00
15241;DHT22;7723;52.170;9.978;2022-08-03T08:37:45;35.20;1.00
15241;DHT22;7723;52.170;9.978;2022-08-03T08:40:12;35.00;1.00
15241;DHT22;7723;52.170;9.978;2022-08-03T08:42:40;34.90;1.00
15241;DHT22;7723;52.170;9.978;2022-08-03T08:45:09;34.00;1.00
15241;DHT22;7723;52.170;9.978;2022-08-03T08:47:38;33.80;1.00
15241;DHT22;7723;52.170;9.978;2022-08-03T08:50:07;33.60;1.00
15241;DHT22;7723;52.170;9.978;2022-08-03T08:52:36;33.80;1.00
15241;DHT22;7723;52.170;9.978;2022-08-03T08:55:07;34.40;1.00
15241;DHT22;7723;52.170;9.978;2022-08-03T08:57:36;34.20;1.00
15241;DHT22;7723;52.170;9.978;2022-08-03T09:00:05;34.40;1.00
15241;DHT22;7723;52.170;9.978;2022-08-03T09:02:36;34.50;1.00
15241;DHT22;7723;52.170;9.978;2022-08-03T09:05:03;34.40;1.00
15241;DHT22;7723;52.170;9.978;2022-08-03T09:07:31;34.40;1.00
15241;DHT22;7723;52.170;9.978;2022-08-03T09:09:58;35.10;1.00
15241;DHT22;7723;52.170;9.978;2022-08-03T09:12:25;35.30;1.00
15241;DHT22;7723;52.170;9.978;2022-08-03T09:14:54;34.80;1.00
15241;DHT22;7723;52.170;9.978;2022-08-03T09:17:21;34.80;1.00
15241;DHT22;7723;52.170;9.978;2022-08-03T09:20:05;35.00;1.00
15241;DHT22;7723;52.170;9.978;2022-08-03T09:22:33;34.80;1.00
15241;DHT22;7723;52.170;9.978;2022-08-03T09:25:03;35.00;1.00
15241;DHT22;7723;52.170;9.978;2022-08-03T09:27:41;34.80;1.00
15241;DHT22;7723;52.170;9.978;2022-08-03T09:30:12;35.30;1.00
15241;DHT22;7723;52.170;9.978;2022-08-03T09:32:41;34.70;1.00
15241;DHT22;7723;52.170;9.978;2022-08-03T09:35:11;35.00;1.00
15241;DHT22;7723;52.170;9.978;2022-08-03T09:37:39;35.00;1.00
15241;DHT22;7723;52.170;9.978;2022-08-03T09:40:07;34.50;1.00
15241;DHT22;7723;52.170;9.978;2022-08-03T09:42:35;34.40;1.00
15241;DHT22;7723;52.170;9.978;2022-08-03T09:45:03;33.90;1.00
15241;DHT22;7723;52.170;9.978;2022-08-03T09:47:32;34.10;1.00
15241;DHT22;7723;52.170;9.978;2022-08-03T09:50:02;34.10;1.00
15241;DHT22;7723;52.170;9.978;2022-08-03T09:52:32;34.00;1.00
15241;DHT22;7723;52.170;9.978;2022-08-03T09:55:00;34.10;1.00
15241;DHT22;7723;52.170;9.978;2022-08-03T09:57:28;34.40;1.00
15241;DHT22;7723;52.170;9.978;2022-08-03T10:00:06;34.80;1.00
15241;DHT22;7723;52.170;9.978;2022-08-03T10:02:35;35.10;1.00
15241;DHT22;7723;52.170;9.978;2022-08-03T10:05:04;35.10;1.00
15241;DHT22;7723;52.170;9.978;2022-08-03T10:07:42;35.00;1.00
15241;DHT22;7723;52.170;9.978;2022-08-03T10:10:10;34.60;1.00
15241;DHT22;7723;52.170;9.978;2022-08-03T10:12:37;34.70;1.00
15241;DHT22;7723;52.170;9.978;2022-08-03T10:15:07;34.40;1.00
15241;DHT22;7723;52.170;9.978;2022-08-03T10:17:35;34.80;1.00
15241;DHT22;7723;52.170;9.978;2022-08-03T10:20:03;34.40;1.00
15241;DHT22;7723;52.170;9.978;2022-08-03T10:22:33;34.40;1.00
15241;DHT22;7723;52.170;9.978;2022-08-03T10:25:03;34.30;1.00
15241;DHT22;7723;52.170;9.978;2022-08-03T10:27:34;34.50;1.00
15241;DHT22;7723;52.170;9.978;2022-08-03T10:30:05;34.80;1.00
15241;DHT22;7723;52.170;9.978;2022-08-03T10:32:37;34.70;1.00
15241;DHT22;7723;52.170;9.978;2022-08-03T10:35:10;34.70;1.00
15241;DHT22;7723;52.170;9.978;2022-08-03T10:37:40;34.40;1.00
15241;DHT22;7723;52.170;9.978;2022-08-03T10:40:12;33.60;1.00
15241;DHT22;7723;52.170;9.978;2022-08-03T10:42:42;33.80;1.00
15241;DHT22;7723;52.170;9.978;2022-08-03T10:45:17;33.40;1.00
15241;DHT22;7723;52.170;9.978;2022-08-03T10:47:46;33.50;1.00
15241;DHT22;7723;52.170;9.978;2022-08-03T10:50:13;33.40;1.00
15241;DHT22;7723;52.170;9.978;2022-08-03T10:52:54;33.80;1.00
15241;DHT22;7723;52.170;9.978;2022-08-03T10:55:34;33.40;1.00
15241;DHT22;7723;52.170;9.978;2022-08-03T10:58:47;33.00;1.00
15241;DHT22;7723;52.170;9.978;2022-08-03T11:01:16;33.10;1.00
15241;DHT22;7723;52.170;9.978;2022-08-03T11:04:13;32.90;1.00
15241;DHT22;7723;52.170;9.978;2022-08-03T11:06:41;33.10;1.00
15241;DHT22;7723;52.170;9.978;2022-08-03T11:09:17;33.20;1.00
15241;DHT22;7723;52.170;9.978;2022-08-03T11:11:47;33.00;1.00
15241;DHT22;7723;52.170;9.978;2022-08-03T11:14:17;32.80;1.00
15241;DHT22;7723;52.170;9.978;2022-08-03T11:16:47;32.50;1.00
15241;DHT22;7723;52.170;9.978;2022-08-03T11:19:16;32.70;1.00
15241;DHT22;7723;52.170;9.978;2022-08-03T11:21:52;32.70;1.00
15241;DHT22;7723;52.170;9.978;2022-08-03T11:24:59;32.70;1.00
15241;DHT22;7723;52.170;9.978;2022-08-03T11:27:29;32.70;1.00
15241;DHT22;7723;52.170;9.978;2022-08-03T11:30:00;32.50;1.00
15241;DHT22;7723;52.170;9.978;2022-08-03T11:32:53;32.50;1.00
15241;DHT22;7723;52.170;9.978;2022-08-03T11:35:24;32.70;1.00
15241;DHT22;7723;52.170;9.978;2022-08-03T11:38:11;32.60;1.00
15241;DHT22;7723;52.170;9.978;2022-08-03T11:40:43;32.70;1.00
15241;DHT22;7723;52.170;9.978;2022-08-03T11:43:45;33.00;1.00
15241;DHT22;7723;52.170;9.978;2022-08-03T11:46:13;33.20;1.00
15241;DHT22;7723;52.170;9.978;2022-08-03T11:48:46;33.20;1.00
15241;DHT22;7723;52.170;9.978;2022-08-03T11:51:22;32.90;1.00
15241;DHT22;7723;52.170;9.978;2022-08-03T11:53:53;32.80;1.00
15241;DHT22;7723;52.170;9.978;2022-08-03T11:56:21;32.80;1.00
15241;DHT22;7723;52.170;9.978;2022-08-03T11:58:51;32.80;1.00
15241;DHT22;7723;52.170;9.978;2022-08-03T12:01:20;33.00;1.00
15241;DHT22;7723;52.170;9.978;2022-08-03T12:03:48;32.80;1.00
15241;DHT22;7723;52.170;9.978;2022-08-03T12:06:17;32.90;1.00
15241;DHT22;7723;52.170;9.978;2022-08-03T12:08:45;32.90;1.00
15241;DHT22;7723;52.170;9.978;2022-08-03T12:11:14;33.20;1.00
15241;DHT22;7723;52.170;9.978;2022-08-03T12:13:42;32.90;1.00
15241;DHT22;7723;52.170;9.978;2022-08-03T12:16:16;33.00;1.00
15241;DHT22;7723;52.170;9.978;2022-08-03T12:18:44;33.10;1.00
15241;DHT22;7723;52.170;9.978;2022-08-03T12:21:11;33.10;1.00
15241;DHT22;7723;52.170;9.978;2022-08-03T12:23:39;32.80;1.00
15241;DHT22;7723;52.170;9.978;2022-08-03T12:26:07;32.60;1.00
15241;DHT22;7723;52.170;9.978;2022-08-03T12:28:35;32.60;1.00
15241;DHT22;7723;52.170;9.978;2022-08-03T12:31:04;32.50;1.00
15241;DHT22;7723;52.170;9.978;2022-08-03T12:33:55;32.40;1.00
15241;DHT22;7723;52.170;9.978;2022-08-03T12:36:22;32.20;1.00
15241;DHT22;7723;52.170;9.978;2022-08-03T12:38:54;32.40;1.00
15241;DHT22;7723;52.170;9.978;2022-08-03T12:41:31;32.60;1.00
15241;DHT22;7723;52.170;9.978;2022-08-03T12:44:00;32.70;1.00
15241;DHT22;7723;52.170;9.978;2022-08-03T12:46:30;32.70;1.00
15241;DHT22;7723;52.170;9.978;2022-08-03T12:49:01;32.90;1.00
15241;DHT22;7723;52.170;9.978;2022-08-03T12:51:29;33.00;1.00
15241;DHT22;7723;52.170;9.978;2022-08-03T12:53:57;33.20;1.00
15241;DHT22;7723;52.170;9.978;2022-08-03T12:56:25;33.20;1.00
15241;DHT22;7723;52.170;9.978;2022-08-03T12:58:52;32.90;1.00
15241;DHT22;7723;52.170;9.978;2022-08-03T13:01:20;32.50;1.00
15241;DHT22;7723;52.170;9.978;2022-08-03T13:03:51;32.40;1.00
15241;DHT22;7723;52.170;9.978;2022-08-03T13:06:22;32.40;1.00
15241;DHT22;7723;52.170;9.978;2022-08-03T13:09:00;32.40;1.00
15241;DHT22;7723;52.170;9.978;2022-08-03T13:11:27;32.50;1.00
15241;DHT22;7723;52.170;9.978;2022-08-03T13:13:54;32.60;1.00
15241;DHT22;7723;52.170;9.978;2022-08-03T13:16:22;32.50;1.00
15241;DHT22;7723;52.170;9.978;2022-08-03T13:18:50;32.70;1.00
15241;DHT22;7723;52.170;9.978;2022-08-03T13:21:19;32.70;1.00
15241;DHT22;7723;52.170;9.978;2022-08-03T13:23:47;32.70;1.00
15241;DHT22;7723;52.170;9.978;2022-08-03T13:26:14;32.80;1.00
15241;DHT22;7723;52.170;9.978;2022-08-03T13:28:42;33.00;1.00
15241;DHT22;7723;52.170;9.978;2022-08-03T13:31:09;32.90;1.00
15241;DHT22;7723;52.170;9.978;2022-08-03T13:33:36;32.90;1.00
15241;DHT22;7723;52.170;9.978;2022-08-03T13:36:05;32.70;1.00
15241;DHT22;7723;52.170;9.978;2022-08-03T13:38:34;32.60;1.00
15241;DHT22;7723;52.170;9.978;2022-08-03T13:41:01;32.60;1.00
15241;DHT22;7723;52.170;9.978;2022-08-03T13:43:28;32.40;1.00
15241;DHT22;7723;52.170;9.978;2022-08-03T13:45:55;32.50;1.00
15241;DHT22;7723;52.170;9.978;2022-08-03T13:48:22;32.60;1.00
15241;DHT22;7723;52.170;9.978;2022-08-03T13:50:50;32.40;1.00
15241;DHT22;7723;52.170;9.978;2022-08-03T13:53:17;32.70;1.00
15241;DHT22;7723;52.170;9.978;2022-08-03T13:55:45;32.70;1.00
15241;DHT22;7723;52.170;9.978;2022-08-03T13:58:12;32.90;1.00
15241;DHT22;7723;52.170;9.978;2022-08-03T14:00:39;33.00;1.00
15241;DHT22;7723;52.170;9.978;2022-08-03T14:03:07;33.00;1.00
15241;DHT22;7723;52.170;9.978;2022-08-03T14:05:34;33.00;1.00
15241;DHT22;7723;52.170;9.978;2022-08-03T14:08:03;33.10;1.00
15241;DHT22;7723;52.170;9.978;2022-08-03T14:10:33;33.00;1.00
15241;DHT22;7723;52.170;9.978;2022-08-03T14:13:02;33.00;1.00
15241;DHT22;7723;52.170;9.978;2022-08-03T14:15:29;33.00;1.00
15241;DHT22;7723;52.170;9.978;2022-08-03T14:17:56;32.90;1.00
15241;DHT22;7723;52.170;9.978;2022-08-03T14:20:23;32.80;1.00
15241;DHT22;7723;52.170;9.978;2022-08-03T14:22:50;32.90;1.00
15241;DHT22;7723;52.170;9.978;2022-08-03T14:25:18;33.10;1.00
15241;DHT22;7723;52.170;9.978;2022-08-03T14:27:45;33.30;1.00
15241;DHT22;7723;52.170;9.978;2022-08-03T14:30:14;33.40;1.00
15241;DHT22;7723;52.170;9.978;2022-08-03T14:32:41;33.40;1.00
15241;DHT22;7723;52.170;9.978;2022-08-03T14:35:08;33.20;1.00
15241;DHT22;7723;52.170;9.978;2022-08-03T14:37:36;33.20;1.00
15241;DHT22;7723;52.170;9.978;2022-08-03T14:40:04;33.30;1.00
15241;DHT22;7723;52.170;9.978;2022-08-03T14:42:31;33.20;1.00
15241;DHT22;7723;52.170;9.978;2022-08-03T14:44:59;32.90;1.00
15241;DHT22;7723;52.170;9.978;2022-08-03T14:47:27;32.80;1.00
15241;DHT22;7723;52.170;9.978;2022-08-03T14:49:54;32.60;1.00
15241;DHT22;7723;52.170;9.978;2022-08-03T14:52:21;32.40;1.00
15241;DHT22;7723;52.170;9.978;2022-08-03T14:54:48;32.40;1.00
15241;DHT22;7723;52.170;9.978;2022-08-03T14:57:15;32.40;1.00
15241;DHT22;7723;52.170;9.978;2022-08-03T14:59:42;32.40;1.00
15241;DHT22;7723;52.170;9.978;2022-08-03T15:02:09;32.50;1.00
15241;DHT22;7723;52.170;9.978;2022-08-03T15:04:38;32.50;1.00
15241;DHT22;7723;52.170;9.978;2022-08-03T15:07:05;32.70;1.00
15241;DHT22;7723;52.170;9.978;2022-08-03T15:09:33;32.70;1.00
15241;DHT22;7723;52.170;9.978;2022-08-03T15:12:00;32.70;1.00
15241;DHT22;7723;52.170;9.978;2022-08-03T15:14:27;32.60;1.00
15241;DHT22;7723;52.170;9.978;2022-08-03T15:16:55;32.50;1.00
15241;DHT22;7723;52.170;9.978;2022-08-03T15:19:22;32.50;1.00
15241;DHT22;7723;52.170;9.978;2022-08-03T15:21:50;32.50;1.00
15241;DHT22;7723;52.170;9.978;2022-08-03T15:24:18;32.70;1.00
15241;DHT22;7723;52.170;9.978;2022-08-03T15:26:45;32.60;1.00
15241;DHT22;7723;52.170;9.978;2022-08-03T15:29:12;32.70;1.00
15241;DHT22;7723;52.170;9.978;2022-08-03T15:31:39;32.80;1.00
15241;DHT22;7723;52.170;9.978;2022-08-03T15:34:06;32.90;1.00
15241;DHT22;7723;52.170;9.978;2022-08-03T15:36:33;32.80;1.00
15241;DHT22;7723;52.170;9.978;2022-08-03T15:39:02;32.70;1.00
15241;DHT22;7723;52.170;9.978;2022-08-03T15:41:29;32.70;1.00
15241;DHT22;7723;52.170;9.978;2022-08-03T15:43:56;32.60;1.00
15241;DHT22;7723;52.170;9.978;2022-08-03T15:46:24;32.60;1.00
15241;DHT22;7723;52.170;9.978;2022-08-03T15:48:51;32.40;1.00
15241;DHT22;7723;52.170;9.978;2022-08-03T15:51:18;32.30;1.00
15241;DHT22;7723;52.170;9.978;2022-08-03T15:53:45;32.20;1.00
15241;DHT22;7723;52.170;9.978;2022-08-03T15:56:13;32.20;1.00
15241;DHT22;7723;52.170;9.978;2022-08-03T15:58:41;32.20;1.00
15241;DHT22;7723;52.170;9.978;2022-08-03T16:01:08;32.00;1.00
15241;DHT22;7723;52.170;9.978;2022-08-03T16:03:36;32.00;1.00
15241;DHT22;7723;52.170;9.978;2022-08-03T16:06:04;31.90;1.00
15241;DHT22;7723;52.170;9.978;2022-08-03T16:08:32;32.00;1.00
15241;DHT22;7723;52.170;9.978;2022-08-03T16:10:59;32.00;1.00